sensor_id;sensor_type;location;lat;lon;timestamp;temperature;humidity
5222;DHT22;2630;52.036;8.514;2022-12-11T00:12:03;0.90;99.90
5222;DHT22;2630;52.036;8.514;2022-12-11T00:14:30;0.80;99.90
5222;DHT22;2630;52.036;8.514;2022-12-11T00:16:56;0.90;99.90
5222;DHT22;2630;52.036;8.514;2022-12-11T00:19:22;1.00;99.90
5222;DHT22;2630;52.036;8.514;2022-12-11T00:21:47;1.00;99.90
5222;DHT22;2630;52.036;8.514;2022-12-11T00:24:13;1.10;99.90
5222;DHT22;2630;52.036;8.514;2022-12-11T00:26:38;1.00;99.90
5222;DHT22;2630;52.036;8.514;2022-12-11T00:29:04;1.00;99.90
5222;DHT22;2630;52.036;8.514;2022-12-11T00:31:30;1.00;99.90
5222;DHT22;2630;52.036;8.514;2022-12-11T00:33:55;1.00;99.90
5222;DHT22;2630;52.036;8.514;2022-12-11T00:36:24;1.00;99.90
5222;DHT22;2630;52.036;8.514;2022-12-11T00:38:50;1.00;99.90
5222;DHT22;2630;52.036;8.514;2022-12-11T00:41:16;0.90;99.90
5222;DHT22;2630;52.036;8.514;2022-12-11T00:43:42;0.90;99.90
5222;DHT22;2630;52.036;8.514;2022-12-11T00:46:08;0.90;99.90
5222;DHT22;2630;52.036;8.514;2022-12-11T00:48:34;0.90;99.90
5222;DHT22;2630;52.036;8.514;2022-12-11T00:51:00;1.00;99.90
5222;DHT22;2630;52.036;8.514;2022-12-11T00:55:51;0.90;99.90
5222;DHT22;2630;52.036;8.514;2022-12-11T00:58:17;0.90;99.90
5222;DHT22;2630;52.036;8.514;2022-12-11T01:00:43;0.80;99.90
5222;DHT22;2630;52.036;8.514;2022-12-11T01:03:12;0.90;99.90
5222;DHT22;2630;52.036;8.514;2022-12-11T01:05:38;0.90;99.90
5222;DHT22;2630;52.036;8.514;2022-12-11T01:08:04;1.00;99.90
5222;DHT22;2630;52.036;8.514;2022-12-11T01:10:30;1.00;99.90
5222;DHT22;2630;52.036;8.514;2022-12-11T01:13:02;1.00;99.90
5222;DHT22;2630;52.036;8.514;2022-12-11T01:15:37;0.90;99.90
5222;DHT22;2630;52.036;8.514;2022-12-11T01:18:03;0.80;99.90
5222;DHT22;2630;52.036;8.514;2022-12-11T01:20:29;0.50;99.90
5222;DHT22;2630;52.036;8.514;2022-12-11T01:22:56;0.80;99.90
5222;DHT22;2630;52.036;8.514;2022-12-11T01:25:22;0.80;99.90
5222;DHT22;2630;52.036;8.514;2022-12-11T01:30:18;0.70;99.90
5222;DHT22;2630;52.036;8.514;2022-12-11T01:32:44;0.70;99.90
5222;DHT22;2630;52.036;8.514;2022-12-11T01:35:11;0.60;99.90
5222;DHT22;2630;52.036;8.514;2022-12-11T01:37:36;0.70;99.90
5222;DHT22;2630;52.036;8.514;2022-12-11T01:40:04;0.70;99.90
5222;DHT22;2630;52.036;8.514;2022-12-11T01:42:30;0.70;99.90
5222;DHT22;2630;52.036;8.514;2022-12-11T01:47:56;0.50;99.90
5222;DHT22;2630;52.036;8.514;2022-12-11T01:50:23;0.60;99.90
5222;DHT22;2630;52.036;8.514;2022-12-11T01:52:49;0.50;99.90
5222;DHT22;2630;52.036;8.514;2022-12-11T01:55:15;0.50;99.90
5222;DHT22;2630;52.036;8.514;2022-12-11T02:00:10;0.60;99.90
5222;DHT22;2630;52.036;8.514;2022-12-11T02:07:32;0.60;99.90
5222;DHT22;2630;52.036;8.514;2022-12-11T02:09:59;0.60;99.90
5222;DHT22;2630;52.036;8.514;2022-12-11T02:15:16;0.60;99.90
5222;DHT22;2630;52.036;8.514;2022-12-11T02:18:09;0.60;99.90
5222;DHT22;2630;52.036;8.514;2022-12-11T02:23:26;0.70;99.90
5222;DHT22;2630;52.036;8.514;2022-12-11T02:28:45;0.70;99.90
5222;DHT22;2630;52.036;8.514;2022-12-11T02:31:15;0.70;99.90
5222;DHT22;2630;52.036;8.514;2022-12-11T02:36:36;0.70;99.90
5222;DHT22;2630;52.036;8.514;2022-12-11T02:39:03;0.70;99.90
5222;DHT22;2630;52.036;8.514;2022-12-11T02:41:31;0.70;99.90
5222;DHT22;2630;52.036;8.514;2022-12-11T02:46:25;0.60;99.90
5222;DHT22;2630;52.036;8.514;2022-12-11T02:48:52;0.70;99.90
5222;DHT22;2630;52.036;8.514;2022-12-11T02:51:24;0.70;99.90
5222;DHT22;2630;52.036;8.514;2022-12-11T02:53:53;0.60;99.90
5222;DHT22;2630;52.036;8.514;2022-12-11T02:56:35;0.60;99.90
5222;DHT22;2630;52.036;8.514;2022-12-11T02:59:08;0.60;99.90
5222;DHT22;2630;52.036;8.514;2022-12-11T03:01:35;0.60;99.90
5222;DHT22;2630;52.036;8.514;2022-12-11T03:04:00;0.70;99.90
5222;DHT22;2630;52.036;8.514;2022-12-11T03:06:36;0.70;99.90
5222;DHT22;2630;52.036;8.514;2022-12-11T03:09:04;0.60;99.90
5222;DHT22;2630;52.036;8.514;2022-12-11T03:11:30;0.90;99.90
5222;DHT22;2630;52.036;8.514;2022-12-11T03:13:55;0.90;99.90
5222;DHT22;2630;52.036;8.514;2022-12-11T03:21:56;0.90;99.90
5222;DHT22;2630;52.036;8.514;2022-12-11T03:24:31;0.90;99.90
5222;DHT22;2630;52.036;8.514;2022-12-11T03:27:03;0.90;99.90
5222;DHT22;2630;52.036;8.514;2022-12-11T03:29:35;0.90;99.90
5222;DHT22;2630;52.036;8.514;2022-12-11T03:32:12;0.90;99.90
5222;DHT22;2630;52.036;8.514;2022-12-11T03:34:46;0.90;99.90
5222;DHT22;2630;52.036;8.514;2022-12-11T03:37:15;0.90;99.90
5222;DHT22;2630;52.036;8.514;2022-12-11T03:39:46;1.00;99.90
5222;DHT22;2630;52.036;8.514;2022-12-11T03:42:14;1.00;99.90
5222;DHT22;2630;52.036;8.514;2022-12-11T03:44:44;0.90;99.90
5222;DHT22;2630;52.036;8.514;2022-12-11T03:47:11;0.90;99.90
5222;DHT22;2630;52.036;8.514;2022-12-11T03:49:41;1.00;99.90
5222;DHT22;2630;52.036;8.514;2022-12-11T03:52:09;1.00;99.90
5222;DHT22;2630;52.036;8.514;2022-12-11T03:54:37;0.90;99.90
5222;DHT22;2630;52.036;8.514;2022-12-11T03:57:03;0.90;99.90
5222;DHT22;2630;52.036;8.514;2022-12-11T03:59:30;0.90;99.90
5222;DHT22;2630;52.036;8.514;2022-12-11T04:01:56;1.00;99.90
5222;DHT22;2630;52.036;8.514;2022-12-11T04:06:47;1.10;99.90
5222;DHT22;2630;52.036;8.514;2022-12-11T04:09:13;1.10;99.90
5222;DHT22;2630;52.036;8.514;2022-12-11T04:11:38;1.10;99.90
5222;DHT22;2630;52.036;8.514;2022-12-11T04:14:12;1.20;99.90
5222;DHT22;2630;52.036;8.514;2022-12-11T04:16:58;1.20;99.90
5222;DHT22;2630;52.036;8.514;2022-12-11T04:22:14;1.20;99.90
5222;DHT22;2630;52.036;8.514;2022-12-11T04:27:25;1.10;99.90
5222;DHT22;2630;52.036;8.514;2022-12-11T04:30:13;1.00;99.90
5222;DHT22;2630;52.036;8.514;2022-12-11T04:32:38;1.00;99.90
5222;DHT22;2630;52.036;8.514;2022-12-11T04:35:06;0.90;99.90
5222;DHT22;2630;52.036;8.514;2022-12-11T04:37:32;1.00;99.90
5222;DHT22;2630;52.036;8.514;2022-12-11T04:39:58;1.00;99.90
5222;DHT22;2630;52.036;8.514;2022-12-11T04:42:23;0.90;99.90
5222;DHT22;2630;52.036;8.514;2022-12-11T04:44:49;0.90;99.90
5222;DHT22;2630;52.036;8.514;2022-12-11T04:47:15;0.90;99.90
5222;DHT22;2630;52.036;8.514;2022-12-11T04:49:40;1.00;99.90
5222;DHT22;2630;52.036;8.514;2022-12-11T04:52:06;1.10;99.90
5222;DHT22;2630;52.036;8.514;2022-12-11T04:54:32;1.10;99.90
5222;DHT22;2630;52.036;8.514;2022-12-11T04:59:23;1.10;99.90
5222;DHT22;2630;52.036;8.514;2022-12-11T05:01:49;1.20;99.90
5222;DHT22;2630;52.036;8.514;2022-12-11T05:04:14;1.30;99.90
5222;DHT22;2630;52.036;8.514;2022-12-11T05:06:40;1.30;99.90
5222;DHT22;2630;52.036;8.514;2022-12-11T05:09:05;1.20;99.90
5222;DHT22;2630;52.036;8.514;2022-12-11T05:11:31;1.20;99.90
5222;DHT22;2630;52.036;8.514;2022-12-11T05:16:23;1.20;99.90
5222;DHT22;2630;52.036;8.514;2022-12-11T05:18:49;1.30;99.90
5222;DHT22;2630;52.036;8.514;2022-12-11T05:21:15;1.20;99.90
5222;DHT22;2630;52.036;8.514;2022-12-11T05:23:41;1.20;99.90
5222;DHT22;2630;52.036;8.514;2022-12-11T05:26:12;1.20;99.90
5222;DHT22;2630;52.036;8.514;2022-12-11T05:28:38;1.20;99.90
5222;DHT22;2630;52.036;8.514;2022-12-11T05:31:12;1.30;99.90
5222;DHT22;2630;52.036;8.514;2022-12-11T05:33:38;1.30;99.90
5222;DHT22;2630;52.036;8.514;2022-12-11T05:36:05;1.30;99.90
5222;DHT22;2630;52.036;8.514;2022-12-11T05:38:31;1.30;99.90
5222;DHT22;2630;52.036;8.514;2022-12-11T05:41:01;1.20;99.90
5222;DHT22;2630;52.036;8.514;2022-12-11T05:43:29;1.20;99.90
5222;DHT22;2630;52.036;8.514;2022-12-11T05:45:56;1.10;99.90
5222;DHT22;2630;52.036;8.514;2022-12-11T05:48:28;1.10;99.90
5222;DHT22;2630;52.036;8.514;2022-12-11T05:51:00;1.10;99.90
5222;DHT22;2630;52.036;8.514;2022-12-11T05:53:27;1.20;99.90
5222;DHT22;2630;52.036;8.514;2022-12-11T05:55:53;1.10;99.90
5222;DHT22;2630;52.036;8.514;2022-12-11T06:00:46;1.20;99.90
5222;DHT22;2630;52.036;8.514;2022-12-11T06:03:12;1.20;99.90
5222;DHT22;2630;52.036;8.514;2022-12-11T06:05:41;1.20;99.90
5222;DHT22;2630;52.036;8.514;2022-12-11T06:08:07;1.30;99.90
5222;DHT22;2630;52.036;8.514;2022-12-11T06:10:33;1.30;99.90
5222;DHT22;2630;52.036;8.514;2022-12-11T06:12:58;1.40;99.90
5222;DHT22;2630;52.036;8.514;2022-12-11T06:15:24;1.30;99.90
5222;DHT22;2630;52.036;8.514;2022-12-11T06:17:50;1.40;99.90
5222;DHT22;2630;52.036;8.514;2022-12-11T06:22:41;1.40;99.90
5222;DHT22;2630;52.036;8.514;2022-12-11T06:25:07;1.40;99.90
5222;DHT22;2630;52.036;8.514;2022-12-11T06:27:33;1.30;99.90
5222;DHT22;2630;52.036;8.514;2022-12-11T06:29:59;1.30;99.90
5222;DHT22;2630;52.036;8.514;2022-12-11T06:32:25;1.20;99.90
5222;DHT22;2630;52.036;8.514;2022-12-11T06:34:51;1.10;99.90
5222;DHT22;2630;52.036;8.514;2022-12-11T06:37:16;1.10;99.90
5222;DHT22;2630;52.036;8.514;2022-12-11T06:39:42;1.10;99.90
5222;DHT22;2630;52.036;8.514;2022-12-11T06:42:08;1.20;99.90
5222;DHT22;2630;52.036;8.514;2022-12-11T06:44:33;1.20;99.90
5222;DHT22;2630;52.036;8.514;2022-12-11T06:46:59;1.30;99.90
5222;DHT22;2630;52.036;8.514;2022-12-11T06:49:25;1.40;99.90
5222;DHT22;2630;52.036;8.514;2022-12-11T06:51:50;1.40;99.90
5222;DHT22;2630;52.036;8.514;2022-12-11T06:54:16;1.40;99.90
5222;DHT22;2630;52.036;8.514;2022-12-11T06:56:41;1.30;99.90
5222;DHT22;2630;52.036;8.514;2022-12-11T06:59:10;1.30;99.90
5222;DHT22;2630;52.036;8.514;2022-12-11T07:01:37;1.30;99.90
5222;DHT22;2630;52.036;8.514;2022-12-11T07:04:02;1.40;99.90
5222;DHT22;2630;52.036;8.514;2022-12-11T07:06:28;1.40;99.90
5222;DHT22;2630;52.036;8.514;2022-12-11T07:08:54;1.30;99.90
5222;DHT22;2630;52.036;8.514;2022-12-11T07:11:20;1.20;99.90
5222;DHT22;2630;52.036;8.514;2022-12-11T07:13:46;1.30;99.90
5222;DHT22;2630;52.036;8.514;2022-12-11T07:16:13;1.40;99.90
5222;DHT22;2630;52.036;8.514;2022-12-11T07:18:40;1.50;99.90
5222;DHT22;2630;52.036;8.514;2022-12-11T07:21:07;1.50;99.90
5222;DHT22;2630;52.036;8.514;2022-12-11T07:23:34;1.40;99.90
5222;DHT22;2630;52.036;8.514;2022-12-11T07:26:08;1.50;99.90
5222;DHT22;2630;52.036;8.514;2022-12-11T07:28:34;1.50;99.90
5222;DHT22;2630;52.036;8.514;2022-12-11T07:31:07;1.50;99.90
5222;DHT22;2630;52.036;8.514;2022-12-11T07:33:33;1.50;99.90
5222;DHT22;2630;52.036;8.514;2022-12-11T07:36:01;1.60;99.90
5222;DHT22;2630;52.036;8.514;2022-12-11T07:38:27;1.60;99.90
5222;DHT22;2630;52.036;8.514;2022-12-11T07:40:52;1.60;99.90
5222;DHT22;2630;52.036;8.514;2022-12-11T07:43:18;1.50;99.90
5222;DHT22;2630;52.036;8.514;2022-12-11T07:45:43;1.50;99.90
5222;DHT22;2630;52.036;8.514;2022-12-11T07:48:09;1.60;99.90
5222;DHT22;2630;52.036;8.514;2022-12-11T07:50:35;1.60;99.90
5222;DHT22;2630;52.036;8.514;2022-12-11T07:53:00;1.60;99.90
5222;DHT22;2630;52.036;8.514;2022-12-11T07:55:27;1.60;99.90
5222;DHT22;2630;52.036;8.514;2022-12-11T07:57:52;1.50;99.90
5222;DHT22;2630;52.036;8.514;2022-12-11T08:00:18;1.60;99.90
5222;DHT22;2630;52.036;8.514;2022-12-11T08:02:44;1.60;99.90
5222;DHT22;2630;52.036;8.514;2022-12-11T08:05:09;1.60;99.90
5222;DHT22;2630;52.036;8.514;2022-12-11T08:07:36;1.70;99.90
5222;DHT22;2630;52.036;8.514;2022-12-11T08:10:03;1.70;99.90
5222;DHT22;2630;52.036;8.514;2022-12-11T08:12:29;1.60;99.90
5222;DHT22;2630;52.036;8.514;2022-12-11T08:17:20;1.50;99.90
5222;DHT22;2630;52.036;8.514;2022-12-11T08:19:46;1.50;99.90
5222;DHT22;2630;52.036;8.514;2022-12-11T08:22:12;1.50;99.90
5222;DHT22;2630;52.036;8.514;2022-12-11T08:24:38;1.60;99.90
5222;DHT22;2630;52.036;8.514;2022-12-11T08:29:30;1.40;99.90
5222;DHT22;2630;52.036;8.514;2022-12-11T08:31:56;1.40;99.90
5222;DHT22;2630;52.036;8.514;2022-12-11T08:36:48;1.20;99.90
5222;DHT22;2630;52.036;8.514;2022-12-11T08:41:39;1.10;99.90
5222;DHT22;2630;52.036;8.514;2022-12-11T08:46:35;1.10;99.90
5222;DHT22;2630;52.036;8.514;2022-12-11T08:51:28;1.00;99.90
5222;DHT22;2630;52.036;8.514;2022-12-11T08:53:56;0.90;99.90
5222;DHT22;2630;52.036;8.514;2022-12-11T08:56:22;0.90;99.90
5222;DHT22;2630;52.036;8.514;2022-12-11T08:58:48;0.60;99.90
5222;DHT22;2630;52.036;8.514;2022-12-11T09:03:40;0.80;99.90
5222;DHT22;2630;52.036;8.514;2022-12-11T09:06:07;0.80;99.90
5222;DHT22;2630;52.036;8.514;2022-12-11T09:08:34;0.80;99.90
5222;DHT22;2630;52.036;8.514;2022-12-11T09:11:08;0.70;99.90
5222;DHT22;2630;52.036;8.514;2022-12-11T09:13:34;0.70;99.90
5222;DHT22;2630;52.036;8.514;2022-12-11T09:16:03;0.70;99.90
5222;DHT22;2630;52.036;8.514;2022-12-11T09:18:29;0.80;99.90
5222;DHT22;2630;52.036;8.514;2022-12-11T09:21:03;0.80;99.90
5222;DHT22;2630;52.036;8.514;2022-12-11T09:23:29;0.90;99.90
5222;DHT22;2630;52.036;8.514;2022-12-11T09:25:55;1.00;99.90
5222;DHT22;2630;52.036;8.514;2022-12-11T09:28:21;1.00;99.90
5222;DHT22;2630;52.036;8.514;2022-12-11T09:30:47;1.10;99.90
5222;DHT22;2630;52.036;8.514;2022-12-11T09:33:12;1.10;99.90
5222;DHT22;2630;52.036;8.514;2022-12-11T09:35:38;1.10;99.90
5222;DHT22;2630;52.036;8.514;2022-12-11T09:38:03;1.20;99.90
5222;DHT22;2630;52.036;8.514;2022-12-11T09:40:30;1.20;99.90
5222;DHT22;2630;52.036;8.514;2022-12-11T09:45:28;1.40;99.90
5222;DHT22;2630;52.036;8.514;2022-12-11T09:47:55;1.30;99.90
5222;DHT22;2630;52.036;8.514;2022-12-11T09:50:27;1.30;99.90
5222;DHT22;2630;52.036;8.514;2022-12-11T09:55:53;1.10;99.90
5222;DHT22;2630;52.036;8.514;2022-12-11T10:06:47;1.40;99.90
5222;DHT22;2630;52.036;8.514;2022-12-11T10:09:21;1.40;99.90
5222;DHT22;2630;52.036;8.514;2022-12-11T10:17:31;1.20;99.90
5222;DHT22;2630;52.036;8.514;2022-12-11T10:22:31;1.10;99.90
5222;DHT22;2630;52.036;8.514;2022-12-11T10:25:00;1.10;99.90
5222;DHT22;2630;52.036;8.514;2022-12-11T10:27:32;1.10;99.90
5222;DHT22;2630;52.036;8.514;2022-12-11T10:30:15;1.10;99.90
5222;DHT22;2630;52.036;8.514;2022-12-11T10:32:56;1.10;99.90
5222;DHT22;2630;52.036;8.514;2022-12-11T10:35:53;1.10;99.90
5222;DHT22;2630;52.036;8.514;2022-12-11T10:41:05;1.20;99.90
5222;DHT22;2630;52.036;8.514;2022-12-11T10:43:42;1.10;99.90
5222;DHT22;2630;52.036;8.514;2022-12-11T10:46:19;1.10;99.90
5222;DHT22;2630;52.036;8.514;2022-12-11T10:48:50;1.10;99.90
5222;DHT22;2630;52.036;8.514;2022-12-11T10:51:33;1.10;99.90
5222;DHT22;2630;52.036;8.514;2022-12-11T10:54:06;1.10;99.90
5222;DHT22;2630;52.036;8.514;2022-12-11T10:56:33;1.00;99.90
5222;DHT22;2630;52.036;8.514;2022-12-11T10:59:00;1.00;99.90
5222;DHT22;2630;52.036;8.514;2022-12-11T11:01:28;0.90;99.90
5222;DHT22;2630;52.036;8.514;2022-12-11T11:06:24;0.90;99.90
5222;DHT22;2630;52.036;8.514;2022-12-11T11:08:58;0.80;99.90
5222;DHT22;2630;52.036;8.514;2022-12-11T11:11:33;0.80;99.90
5222;DHT22;2630;52.036;8.514;2022-12-11T11:14:16;0.80;99.90
5222;DHT22;2630;52.036;8.514;2022-12-11T11:16:44;0.80;99.90
5222;DHT22;2630;52.036;8.514;2022-12-11T11:19:34;0.80;99.90
5222;DHT22;2630;52.036;8.514;2022-12-11T11:22:04;0.80;99.90
5222;DHT22;2630;52.036;8.514;2022-12-11T11:27:01;0.80;99.90
5222;DHT22;2630;52.036;8.514;2022-12-11T11:29:33;0.80;99.90
5222;DHT22;2630;52.036;8.514;2022-12-11T11:32:20;0.80;99.90
5222;DHT22;2630;52.036;8.514;2022-12-11T11:34:47;0.90;99.90
5222;DHT22;2630;52.036;8.514;2022-12-11T11:37:31;0.90;99.90
5222;DHT22;2630;52.036;8.514;2022-12-11T11:40:05;0.90;99.90
5222;DHT22;2630;52.036;8.514;2022-12-11T11:43:02;1.00;99.90
5222;DHT22;2630;52.036;8.514;2022-12-11T11:45:39;1.10;99.90
5222;DHT22;2630;52.036;8.514;2022-12-11T11:56:02;1.50;99.90
5222;DHT22;2630;52.036;8.514;2022-12-11T11:58:43;1.30;99.90
5222;DHT22;2630;52.036;8.514;2022-12-11T12:01:18;1.60;99.90
5222;DHT22;2630;52.036;8.514;2022-12-11T12:12:01;1.70;99.90
5222;DHT22;2630;52.036;8.514;2022-12-11T12:17:56;1.70;99.90
5222;DHT22;2630;52.036;8.514;2022-12-11T12:23:26;1.60;99.90
5222;DHT22;2630;52.036;8.514;2022-12-11T12:26:08;1.70;99.90
5222;DHT22;2630;52.036;8.514;2022-12-11T12:29:07;1.60;99.90
5222;DHT22;2630;52.036;8.514;2022-12-11T12:31:39;1.80;99.90
5222;DHT22;2630;52.036;8.514;2022-12-11T12:42:44;1.70;99.90
5222;DHT22;2630;52.036;8.514;2022-12-11T12:52:39;1.90;99.90
5222;DHT22;2630;52.036;8.514;2022-12-11T12:57:48;1.90;99.90
5222;DHT22;2630;52.036;8.514;2022-12-11T13:00:26;1.90;99.90
5222;DHT22;2630;52.036;8.514;2022-12-11T13:02:53;1.90;99.90
5222;DHT22;2630;52.036;8.514;2022-12-11T13:05:26;2.00;99.90
5222;DHT22;2630;52.036;8.514;2022-12-11T13:07:58;2.00;99.90
5222;DHT22;2630;52.036;8.514;2022-12-11T13:12:55;2.00;99.90
5222;DHT22;2630;52.036;8.514;2022-12-11T13:15:29;2.00;99.90
5222;DHT22;2630;52.036;8.514;2022-12-11T13:17:55;2.00;99.90
5222;DHT22;2630;52.036;8.514;2022-12-11T13:20:24;2.00;99.90
5222;DHT22;2630;52.036;8.514;2022-12-11T13:23:18;2.00;99.90
5222;DHT22;2630;52.036;8.514;2022-12-11T13:34:06;1.70;99.90
5222;DHT22;2630;52.036;8.514;2022-12-11T13:36:30;1.70;99.90
5222;DHT22;2630;52.036;8.514;2022-12-11T13:39:14;1.70;99.90
5222;DHT22;2630;52.036;8.514;2022-12-11T13:41:45;1.50;99.90
5222;DHT22;2630;52.036;8.514;2022-12-11T13:44:20;1.40;99.90
5222;DHT22;2630;52.036;8.514;2022-12-11T13:49:27;1.50;99.90
5222;DHT22;2630;52.036;8.514;2022-12-11T13:51:57;1.60;99.90
5222;DHT22;2630;52.036;8.514;2022-12-11T13:54:23;1.60;99.90
5222;DHT22;2630;52.036;8.514;2022-12-11T14:01:54;1.60;99.90
5222;DHT22;2630;52.036;8.514;2022-12-11T14:04:21;1.50;99.90
5222;DHT22;2630;52.036;8.514;2022-12-11T14:06:48;1.60;99.90
5222;DHT22;2630;52.036;8.514;2022-12-11T14:09:20;1.70;99.90
5222;DHT22;2630;52.036;8.514;2022-12-11T14:11:47;1.70;99.90
5222;DHT22;2630;52.036;8.514;2022-12-11T14:19:30;1.60;99.90
5222;DHT22;2630;52.036;8.514;2022-12-11T14:22:04;1.70;99.90
5222;DHT22;2630;52.036;8.514;2022-12-11T14:24:31;1.70;99.90
5222;DHT22;2630;52.036;8.514;2022-12-11T14:26:57;1.70;99.90
5222;DHT22;2630;52.036;8.514;2022-12-11T14:29:30;1.70;99.90
5222;DHT22;2630;52.036;8.514;2022-12-11T14:34:33;1.80;99.90
5222;DHT22;2630;52.036;8.514;2022-12-11T14:37:02;1.90;99.90
5222;DHT22;2630;52.036;8.514;2022-12-11T14:45:18;1.80;99.90
5222;DHT22;2630;52.036;8.514;2022-12-11T14:50:18;1.80;99.90
5222;DHT22;2630;52.036;8.514;2022-12-11T14:52:49;1.90;99.90
5222;DHT22;2630;52.036;8.514;2022-12-11T14:55:29;1.80;99.90
5222;DHT22;2630;52.036;8.514;2022-12-11T14:58:05;1.70;99.90
5222;DHT22;2630;52.036;8.514;2022-12-11T15:00:36;1.80;99.90
5222;DHT22;2630;52.036;8.514;2022-12-11T15:03:05;1.80;99.90
5222;DHT22;2630;52.036;8.514;2022-12-11T15:05:32;1.80;99.90
5222;DHT22;2630;52.036;8.514;2022-12-11T15:08:15;1.70;99.90
5222;DHT22;2630;52.036;8.514;2022-12-11T15:13:23;1.70;99.90
5222;DHT22;2630;52.036;8.514;2022-12-11T15:15:49;1.70;99.90
5222;DHT22;2630;52.036;8.514;2022-12-11T15:18:24;1.60;99.90
5222;DHT22;2630;52.036;8.514;2022-12-11T15:21:03;1.60;99.90
5222;DHT22;2630;52.036;8.514;2022-12-11T15:23:31;1.50;99.90
5222;DHT22;2630;52.036;8.514;2022-12-11T15:26:00;1.40;99.90
5222;DHT22;2630;52.036;8.514;2022-12-11T15:28:32;1.40;99.90
5222;DHT22;2630;52.036;8.514;2022-12-11T15:31:02;1.40;99.90
5222;DHT22;2630;52.036;8.514;2022-12-11T15:36:05;1.30;99.90
5222;DHT22;2630;52.036;8.514;2022-12-11T15:41:04;1.30;99.90
5222;DHT22;2630;52.036;8.514;2022-12-11T15:46:01;1.20;99.90
5222;DHT22;2630;52.036;8.514;2022-12-11T15:48:27;1.20;99.90
5222;DHT22;2630;52.036;8.514;2022-12-11T15:53:18;1.30;99.90
5222;DHT22;2630;52.036;8.514;2022-12-11T15:55:44;1.30;99.90
5222;DHT22;2630;52.036;8.514;2022-12-11T15:58:14;1.30;99.90
5222;DHT22;2630;52.036;8.514;2022-12-11T16:00:42;1.30;99.90
5222;DHT22;2630;52.036;8.514;2022-12-11T16:03:10;1.30;99.90
5222;DHT22;2630;52.036;8.514;2022-12-11T16:08:03;1.30;99.90
5222;DHT22;2630;52.036;8.514;2022-12-11T16:10:29;1.30;99.90
5222;DHT22;2630;52.036;8.514;2022-12-11T16:12:55;1.30;99.90
5222;DHT22;2630;52.036;8.514;2022-12-11T16:15:24;1.30;99.90
5222;DHT22;2630;52.036;8.514;2022-12-11T16:18:02;1.30;99.90
5222;DHT22;2630;52.036;8.514;2022-12-11T16:20:28;1.40;99.90
5222;DHT22;2630;52.036;8.514;2022-12-11T16:22:55;1.40;99.90
5222;DHT22;2630;52.036;8.514;2022-12-11T16:25:21;1.40;99.90
5222;DHT22;2630;52.036;8.514;2022-12-11T16:30:13;1.40;99.90
5222;DHT22;2630;52.036;8.514;2022-12-11T16:32:38;1.50;99.90
5222;DHT22;2630;52.036;8.514;2022-12-11T16:35:04;1.50;99.90
5222;DHT22;2630;52.036;8.514;2022-12-11T16:37:30;1.50;99.90
5222;DHT22;2630;52.036;8.514;2022-12-11T16:47:13;1.60;99.90
5222;DHT22;2630;52.036;8.514;2022-12-11T16:49:39;1.70;99.90
5222;DHT22;2630;52.036;8.514;2022-12-11T16:52:06;1.70;99.90
5222;DHT22;2630;52.036;8.514;2022-12-11T16:56:58;1.70;99.90
5222;DHT22;2630;52.036;8.514;2022-12-11T17:04:16;1.80;99.90
5222;DHT22;2630;52.036;8.514;2022-12-11T17:06:41;1.60;99.90
5222;DHT22;2630;52.036;8.514;2022-12-11T17:11:33;1.60;99.90
5222;DHT22;2630;52.036;8.514;2022-12-11T17:16:26;1.60;99.90
5222;DHT22;2630;52.036;8.514;2022-12-11T17:18:54;1.50;99.90
5222;DHT22;2630;52.036;8.514;2022-12-11T17:21:20;1.50;99.90
5222;DHT22;2630;52.036;8.514;2022-12-11T17:23:47;1.50;99.90
5222;DHT22;2630;52.036;8.514;2022-12-11T17:26:14;1.40;99.90
5222;DHT22;2630;52.036;8.514;2022-12-11T17:28:39;1.40;99.90
5222;DHT22;2630;52.036;8.514;2022-12-11T17:33:37;1.40;99.90
5222;DHT22;2630;52.036;8.514;2022-12-11T17:36:04;1.40;99.90
5222;DHT22;2630;52.036;8.514;2022-12-11T17:38:30;1.30;99.90
5222;DHT22;2630;52.036;8.514;2022-12-11T17:40:55;1.30;99.90
5222;DHT22;2630;52.036;8.514;2022-12-11T17:45:49;1.30;99.90
5222;DHT22;2630;52.036;8.514;2022-12-11T17:48:17;1.40;99.90
5222;DHT22;2630;52.036;8.514;2022-12-11T17:50:45;1.40;99.90
5222;DHT22;2630;52.036;8.514;2022-12-11T17:55:42;1.40;99.90
5222;DHT22;2630;52.036;8.514;2022-12-11T18:00:34;1.50;99.90
5222;DHT22;2630;52.036;8.514;2022-12-11T18:03:00;1.50;99.90
5222;DHT22;2630;52.036;8.514;2022-12-11T18:05:26;1.50;99.90
5222;DHT22;2630;52.036;8.514;2022-12-11T18:07:51;1.40;99.90
5222;DHT22;2630;52.036;8.514;2022-12-11T18:10:17;1.40;99.90
5222;DHT22;2630;52.036;8.514;2022-12-11T18:15:09;1.30;99.90
5222;DHT22;2630;52.036;8.514;2022-12-11T18:20:01;1.30;99.90
5222;DHT22;2630;52.036;8.514;2022-12-11T18:22:26;1.30;99.90
5222;DHT22;2630;52.036;8.514;2022-12-11T18:24:52;1.20;99.90
5222;DHT22;2630;52.036;8.514;2022-12-11T18:27:18;1.20;99.90
5222;DHT22;2630;52.036;8.514;2022-12-11T18:29:44;1.20;99.90
5222;DHT22;2630;52.036;8.514;2022-12-11T18:32:10;1.10;99.90
5222;DHT22;2630;52.036;8.514;2022-12-11T18:44:20;1.20;99.90
5222;DHT22;2630;52.036;8.514;2022-12-11T18:46:48;1.20;99.90
5222;DHT22;2630;52.036;8.514;2022-12-11T18:54:06;1.30;99.90
5222;DHT22;2630;52.036;8.514;2022-12-11T19:01:27;1.40;99.90
5222;DHT22;2630;52.036;8.514;2022-12-11T19:03:56;1.40;99.90
5222;DHT22;2630;52.036;8.514;2022-12-11T19:06:24;1.40;99.90
5222;DHT22;2630;52.036;8.514;2022-12-11T19:08:53;1.40;99.90
5222;DHT22;2630;52.036;8.514;2022-12-11T19:11:22;1.40;99.90
5222;DHT22;2630;52.036;8.514;2022-12-11T19:13:50;1.40;99.90
5222;DHT22;2630;52.036;8.514;2022-12-11T19:16:27;1.40;99.90
5222;DHT22;2630;52.036;8.514;2022-12-11T19:18:59;1.40;99.90
5222;DHT22;2630;52.036;8.514;2022-12-11T19:23:51;1.40;99.90
5222;DHT22;2630;52.036;8.514;2022-12-11T19:26:19;1.40;99.90
5222;DHT22;2630;52.036;8.514;2022-12-11T19:28:46;1.40;99.90
5222;DHT22;2630;52.036;8.514;2022-12-11T19:31:15;1.50;99.90
5222;DHT22;2630;52.036;8.514;2022-12-11T19:33:41;1.50;99.90
5222;DHT22;2630;52.036;8.514;2022-12-11T19:38:36;1.30;99.90
5222;DHT22;2630;52.036;8.514;2022-12-11T19:41:08;1.30;99.90
5222;DHT22;2630;52.036;8.514;2022-12-11T19:43:35;1.30;99.90
5222;DHT22;2630;52.036;8.514;2022-12-11T19:48:27;1.30;99.90
5222;DHT22;2630;52.036;8.514;2022-12-11T19:53:21;1.40;99.90
5222;DHT22;2630;52.036;8.514;2022-12-11T19:55:51;1.50;99.90
5222;DHT22;2630;52.036;8.514;2022-12-11T19:58:17;1.50;99.90
5222;DHT22;2630;52.036;8.514;2022-12-11T20:00:43;1.60;99.90
5222;DHT22;2630;52.036;8.514;2022-12-11T20:05:34;1.60;99.90
5222;DHT22;2630;52.036;8.514;2022-12-11T20:08:01;1.60;99.90
5222;DHT22;2630;52.036;8.514;2022-12-11T20:12:53;1.60;99.90
5222;DHT22;2630;52.036;8.514;2022-12-11T20:15:21;1.60;99.90
5222;DHT22;2630;52.036;8.514;2022-12-11T20:17:51;1.60;99.90
5222;DHT22;2630;52.036;8.514;2022-12-11T20:20:17;1.70;99.90
5222;DHT22;2630;52.036;8.514;2022-12-11T20:22:43;1.70;99.90
5222;DHT22;2630;52.036;8.514;2022-12-11T20:25:08;1.70;99.90
5222;DHT22;2630;52.036;8.514;2022-12-11T20:27:35;1.70;99.90
5222;DHT22;2630;52.036;8.514;2022-12-11T20:32:27;1.70;99.90
5222;DHT22;2630;52.036;8.514;2022-12-11T20:39:48;1.90;99.90
5222;DHT22;2630;52.036;8.514;2022-12-11T20:44:40;1.90;99.90
5222;DHT22;2630;52.036;8.514;2022-12-11T20:51:58;1.90;99.90
5222;DHT22;2630;52.036;8.514;2022-12-11T20:56:50;1.90;99.90
5222;DHT22;2630;52.036;8.514;2022-12-11T20:59:16;1.80;99.90
5222;DHT22;2630;52.036;8.514;2022-12-11T21:01:42;1.80;99.90
5222;DHT22;2630;52.036;8.514;2022-12-11T21:04:09;1.70;99.90
5222;DHT22;2630;52.036;8.514;2022-12-11T21:06:37;1.70;99.90
5222;DHT22;2630;52.036;8.514;2022-12-11T21:09:24;1.70;99.90
5222;DHT22;2630;52.036;8.514;2022-12-11T21:11:51;1.70;99.90
5222;DHT22;2630;52.036;8.514;2022-12-11T21:14:17;1.70;99.90